createdAt,value
2018-01-28T00:00:58.320Z,315.2
2018-01-28T00:10:58.069Z,314.9
2018-01-28T00:20:57.833Z,352.6
2018-01-28T00:30:58.626Z,380.6
2018-01-28T00:40:58.372Z,339.1
2018-01-28T00:50:58.177Z,339.7
2018-01-28T01:00:57.894Z,344.8
2018-01-28T01:10:58.690Z,350.0
2018-01-28T01:20:58.468Z,395.3
2018-01-28T01:30:58.224Z,377.1
2018-01-28T01:40:58.162Z,299.3
2018-01-28T01:50:57.876Z,235.1
2018-01-28T02:00:58.587Z,193.1
2018-01-28T02:10:58.374Z,189.4
2018-01-28T02:20:58.211Z,171.7
2018-01-28T02:30:57.928Z,168.7
2018-01-28T02:40:58.629Z,174.5
2018-01-28T02:50:58.346Z,169.1
2018-01-28T03:00:58.047Z,170.5
2018-01-28T03:10:58.752Z,202.2
2018-01-28T03:20:58.661Z,192.3
2018-01-28T03:30:58.369Z,182.3
2018-01-28T03:40:58.058Z,155.6
2018-01-28T03:50:58.744Z,131.5
2018-01-28T04:00:58.390Z,121.7
2018-01-28T04:10:58.104Z,119.7
2018-01-28T04:20:57.878Z,117.4
2018-01-28T04:30:58.533Z,122.5
2018-01-28T04:40:58.210Z,113.1
2018-01-28T04:50:57.914Z,125.6
2018-01-28T05:00:58.619Z,126.8
2018-01-28T05:10:58.334Z,125.0
2018-01-28T05:20:58.171Z,128.3
2018-01-28T05:30:57.912Z,130.3
2018-01-28T05:40:58.640Z,152.7
2018-01-28T05:50:58.310Z,151.0
2018-01-28T06:00:58.264Z,159.4
2018-01-28T06:10:57.998Z,148.7
2018-01-28T06:20:57.923Z,155.6
2018-01-28T06:30:58.678Z,154.6
2018-01-28T06:40:58.394Z,161.3
2018-01-28T06:50:58.181Z,157.7
2018-01-28T07:00:57.914Z,158.3
2018-01-28T07:10:58.623Z,137.5
2018-01-28T07:20:59.375Z,107.8
2018-01-28T07:30:58.084Z,74.3
2018-01-28T07:40:57.801Z,61.0
2018-01-28T07:50:58.533Z,49.5
2018-01-28T08:00:58.214Z,38.9
2018-01-28T08:10:57.901Z,31.9
2018-01-28T08:20:58.810Z,19.9
2018-01-28T08:30:58.564Z,16.5
2018-01-28T08:40:58.320Z,12.6
2018-01-28T08:50:58.141Z,14.6
2018-01-28T09:00:57.901Z,13.8
2018-01-28T09:10:58.751Z,12.8
2018-01-28T09:20:58.655Z,16.2
2018-01-28T09:30:58.434Z,13.5
2018-01-28T09:40:58.201Z,14.7
2018-01-28T09:50:57.991Z,19.7
2018-01-28T10:00:58.721Z,20.5
2018-01-28T10:10:58.472Z,11.8
2018-01-28T10:20:58.310Z,14.5
2018-01-28T10:30:58.078Z,14.9
2018-01-28T10:40:58.840Z,16.9
2018-01-28T10:50:58.599Z,16.0
2018-01-28T11:00:58.324Z,18.3
2018-01-28T11:10:58.092Z,18.6
2018-01-28T11:20:57.969Z,17.5
2018-01-28T11:30:58.805Z,18.8
2018-01-28T11:40:58.545Z,22.0
2018-01-28T11:50:58.239Z,20.6
2018-01-28T12:00:57.975Z,22.3
2018-01-28T12:10:58.751Z,22.9
2018-01-28T12:20:58.617Z,24.8
2018-01-28T12:30:58.450Z,23.0
2018-01-28T12:40:58.187Z,21.3
2018-01-28T12:50:57.940Z,22.0
2018-01-28T13:00:58.721Z,24.5
2018-01-28T13:10:58.523Z,26.9
2018-01-28T13:20:58.444Z,25.2
2018-01-28T13:30:58.209Z,23.0
2018-01-28T13:40:57.979Z,23.4
2018-01-28T13:50:58.716Z,20.9
2018-01-28T14:00:58.427Z,25.2
2018-01-28T14:10:58.197Z,23.5
2018-01-28T14:20:58.514Z,25.4
2018-01-28T14:30:58.314Z,23.8
2018-01-28T14:40:58.105Z,22.2
2018-01-28T14:50:57.885Z,24.3
2018-01-28T15:00:58.660Z,25.0
2018-01-28T15:10:58.416Z,25.7
2018-01-28T15:20:58.318Z,22.8
2018-01-28T15:30:57.927Z,24.7
2018-01-28T15:40:58.694Z,28.9
2018-01-28T15:50:58.536Z,28.2
2018-01-28T16:00:58.296Z,28.3
2018-01-28T16:10:58.156Z,33.1
2018-01-28T16:20:58.032Z,29.9
2018-01-28T16:30:58.799Z,31.5
2018-01-28T16:40:58.604Z,32.7
2018-01-28T16:50:58.630Z,31.6
2018-01-28T17:00:58.382Z,34.3
2018-01-28T17:10:58.304Z,29.5
2018-01-28T17:20:58.347Z,29.2
2018-01-28T17:30:58.240Z,29.6
2018-01-28T17:40:57.975Z,34.3
2018-01-28T17:50:58.767Z,31.5
2018-01-28T18:00:58.520Z,33.8
2018-01-28T18:10:58.421Z,32.9
2018-01-28T18:20:58.504Z,32.9
2018-01-28T18:30:59.253Z,32.3
2018-01-28T18:40:58.162Z,33.7
2018-01-28T18:50:58.064Z,34.8
2018-01-28T19:00:58.829Z,35.4
2018-01-28T19:10:58.848Z,32.0
2018-01-28T19:20:58.739Z,29.1
2018-01-28T19:30:58.618Z,29.4
2018-01-28T19:40:58.426Z,24.6
2018-01-28T19:50:58.639Z,25.4
2018-01-28T20:00:58.460Z,23.2
2018-01-28T20:10:58.386Z,24.4
2018-01-28T20:20:58.342Z,20.4
2018-01-28T20:30:58.269Z,24.4
2018-01-28T20:40:58.196Z,21.4
2018-01-28T20:50:58.012Z,21.0
2018-01-28T21:00:58.831Z,20.2
2018-01-28T21:10:58.604Z,18.9
2018-01-28T21:20:58.526Z,19.1
2018-01-28T21:30:58.294Z,19.6
2018-01-28T21:40:57.990Z,20.6
2018-01-28T21:50:58.754Z,19.6
2018-01-28T22:00:58.528Z,23.3
2018-01-28T22:10:58.335Z,21.5
2018-01-28T22:20:58.197Z,19.5
2018-01-28T22:30:57.948Z,19.1
2018-01-28T22:40:58.693Z,16.7
2018-01-28T22:50:58.467Z,17.0
2018-01-28T23:00:58.244Z,14.7
2018-01-28T23:10:57.846Z,14.8
2018-01-28T23:20:58.766Z,15.4
2018-01-28T23:30:58.513Z,15.2
2018-01-28T23:40:58.259Z,15.7
2018-01-28T23:50:57.973Z,13.9
